Time;durP1;ratioP1;P1;durP2;ratioP2;P2;SDS_P1;SDS_P2;PMS_P1;PMS_P2;Temp;Humidity;BMP_temperature;BMP_pressure;BME280_temperature;BME280_humidity;BME280_pressure;Samples;Min_cycle;Max_cycle;Signal;HPM_P1;HPM_P2
2024/02/07 00:00:26;;;;;;;;;;;;;;;22.85;24.34;97018.16;5106969;28;19946;-79
2024/02/07 00:02:52;;;;;;;;;;;;;;;23.07;24.62;97029.41;5104276;28;19916;-79
2024/02/07 00:05:18;;;;;;;;;;;;;;;22.15;29.96;97024.00;5095323;28;19920;-79
2024/02/07 00:07:45;;;;;;;;;;;;;;;22.16;27.13;97003.22;5095384;28;19916;-79
2024/02/07 00:10:11;;;;;;;;;;;;;;;24.34;22.91;97021.94;5106605;27;19970;-78
2024/02/07 00:12:38;;;;;;;;;;;;;;;23.95;25.68;97009.41;5112219;28;19921;-79
2024/02/07 00:15:04;;;;;;;;;;;;;;;22.40;25.89;97007.25;5106303;28;19920;-79
2024/02/07 00:17:30;;;;;;;;;;;;;;;24.30;24.87;97004.44;5095634;28;20058;-78
2024/02/07 00:19:57;;;;;;;;;;;;;;;23.65;23.51;96987.72;5098205;28;19984;-79
2024/02/07 00:22:23;;;;;;;;;;;;;;;23.95;24.01;96996.16;5106518;28;20387;-78
2024/02/07 00:24:49;;;;;;;;;;;;;;;24.44;22.87;97009.50;5104496;28;19926;-78
2024/02/07 00:27:15;;;;;;;;;;;;;;;23.89;26.18;97020.44;5113855;27;20280;-79
2024/02/07 00:29:41;;;;;;;;;;;;;;;22.00;25.74;97004.09;5101605;28;19920;-79
2024/02/07 00:32:07;;;;;;;;;;;;;;;22.47;25.76;97001.41;5094771;27;19950;-79
2024/02/07 00:34:33;;;;;;;;;;;;;;;22.88;24.71;97003.25;5095459;28;19916;-79
2024/02/07 00:36:59;;;;;;;;;;;;;;;23.68;23.90;97010.03;5095307;28;19916;-79
2024/02/07 00:39:25;;;;;;;;;;;;;;;24.24;23.01;96997.88;5108446;28;20342;-79
2024/02/07 00:41:51;;;;;;;;;;;;;;;23.63;23.62;96970.59;5104035;28;19924;-79
2024/02/07 00:44:17;;;;;;;;;;;;;;;25.00;22.12;96984.69;5094775;28;20289;-79
2024/02/07 00:46:43;;;;;;;;;;;;;;;24.86;22.70;96922.75;5096650;28;19926;-78
2024/02/07 00:49:13;;;;;;;;;;;;;;;23.48;24.20;96933.16;5104631;28;19920;-79
2024/02/07 00:51:39;;;;;;;;;;;;;;;23.59;23.77;96976.34;5111655;28;19931;-78
2024/02/07 00:54:05;;;;;;;;;;;;;;;23.88;23.50;96976.81;5110653;28;19920;-79
2024/02/07 00:56:31;;;;;;;;;;;;;;;23.91;23.48;96972.31;5094735;28;19924;-79
2024/02/07 00:58:57;;;;;;;;;;;;;;;24.84;22.61;96967.38;5103326;28;20010;-78
2024/02/07 01:01:23;;;;;;;;;;;;;;;25.47;21.74;96978.66;5110916;27;20111;-79
2024/02/07 01:03:49;;;;;;;;;;;;;;;23.67;25.50;96969.22;5114244;28;19924;-79
2024/02/07 01:06:15;;;;;;;;;;;;;;;24.61;22.91;96968.72;5103953;27;19920;-78
2024/02/07 01:08:42;;;;;;;;;;;;;;;25.06;22.16;96960.38;5107481;28;19980;-78
2024/02/07 01:11:08;;;;;;;;;;;;;;;25.16;22.31;96963.94;5111006;28;19920;-79
2024/02/07 01:13:34;;;;;;;;;;;;;;;25.31;21.94;96957.25;5103210;28;20292;-79
2024/02/07 01:16:00;;;;;;;;;;;;;;;26.00;21.17;96948.84;5103840;27;19967;-78
2024/02/07 01:18:26;;;;;;;;;;;;;;;25.12;22.15;96938.84;5098780;28;20030;-79
2024/02/07 01:20:52;;;;;;;;;;;;;;;25.41;22.00;96941.94;5103100;28;20377;-79
2024/02/07 01:23:18;;;;;;;;;;;;;;;25.90;21.18;96940.94;5097067;28;19965;-79
2024/02/07 01:25:44;;;;;;;;;;;;;;;26.50;20.72;96932.38;5107952;28;19927;-78
2024/02/07 01:28:10;;;;;;;;;;;;;;;26.25;20.79;96930.03;5101777;28;19923;-79
2024/02/07 01:30:36;;;;;;;;;;;;;;;25.46;21.82;96936.97;5101878;28;19920;-79
2024/02/07 01:33:02;;;;;;;;;;;;;;;26.45;20.70;96945.09;5111404;28;20001;-79
2024/02/07 01:35:30;;;;;;;;;;;;;;;26.36;20.99;96935.91;5095150;28;19985;-78
2024/02/07 01:38:07;;;;;;;;;;;;;;;26.45;24.14;96938.66;5095826;28;20427;-78
2024/02/07 01:40:42;;;;;;;;;;;;;;;25.35;22.00;96929.78;5103517;27;19916;-79
2024/02/07 01:43:12;;;;;;;;;;;;;;;25.95;21.14;96924.16;5103247;27;19920;-79
2024/02/07 01:45:38;;;;;;;;;;;;;;;24.61;25.67;96918.19;5103162;28;20428;-79
2024/02/07 01:48:06;;;;;;;;;;;;;;;24.38;23.17;96927.19;5096538;28;19976;-79
2024/02/07 01:50:32;;;;;;;;;;;;;;;25.65;21.78;96918.81;5108245;28;19926;-79
2024/02/07 01:53:01;;;;;;;;;;;;;;;25.35;21.72;96912.13;5102725;28;20273;-79
2024/02/07 01:55:28;;;;;;;;;;;;;;;24.74;22.56;96907.59;5106620;28;19931;-79
2024/02/07 01:57:57;;;;;;;;;;;;;;;23.51;23.52;96905.00;5103612;27;19923;-79
2024/02/07 02:00:23;;;;;;;;;;;;;;;23.09;25.79;96884.16;5103483;27;19928;-80
2024/02/07 02:02:53;;;;;;;;;;;;;;;22.78;27.37;96914.84;5096252;28;19920;-79
2024/02/07 02:05:19;;;;;;;;;;;;;;;22.80;24.76;96883.63;5088201;28;20292;-80
2024/02/07 02:07:47;;;;;;;;;;;;;;;22.46;29.52;96910.34;5105450;27;20074;-79
2024/02/07 02:10:13;;;;;;;;;;;;;;;21.54;28.87;96836.31;5101357;28;20008;-80
2024/02/07 02:12:40;;;;;;;;;;;;;;;21.38;28.73;96901.38;5104853;28;19927;-79
2024/02/07 02:15:07;;;;;;;;;;;;;;;22.62;25.32;96895.44;5102586;28;19919;-80
2024/02/07 02:17:33;;;;;;;;;;;;;;;23.34;24.37;96890.41;5098001;28;19934;-80
2024/02/07 02:19:59;;;;;;;;;;;;;;;24.65;22.47;96885.13;5109153;28;19919;-80
2024/02/07 02:22:31;;;;;;;;;;;;;;;24.25;23.54;96884.47;5106397;28;20016;-80
2024/02/07 02:25:16;;;;;;;;;;;;;;;23.36;24.38;96875.97;5105668;27;19942;-80
2024/02/07 02:27:44;;;;;;;;;;;;;;;23.13;26.52;96884.78;5097386;27;19920;-80
2024/02/07 02:30:19;;;;;;;;;;;;;;;23.05;24.31;96883.50;5089987;28;19943;-80
2024/02/07 02:32:48;;;;;;;;;;;;;;;22.46;26.95;96881.56;5109422;27;19920;-80
2024/02/07 02:35:18;;;;;;;;;;;;;;;23.62;24.16;96852.13;5114934;27;20330;-79
2024/02/07 02:37:45;;;;;;;;;;;;;;;23.84;24.57;96866.84;5111337;27;19927;-79
2024/02/07 02:40:11;;;;;;;;;;;;;;;24.97;22.47;96869.72;5100724;27;20424;-79
2024/02/07 02:42:37;;;;;;;;;;;;;;;23.60;23.88;96849.00;5101506;28;20381;-79
2024/02/07 02:45:03;;;;;;;;;;;;;;;21.64;26.24;96844.34;5105204;28;19963;-79
2024/02/07 02:47:30;;;;;;;;;;;;;;;22.05;26.59;96842.66;5106736;28;20325;-79
2024/02/07 02:49:56;;;;;;;;;;;;;;;21.16;27.52;96830.69;5100431;28;20332;-79
2024/02/07 02:52:22;;;;;;;;;;;;;;;22.49;25.68;96833.91;5113923;28;20399;-79
2024/02/07 02:54:49;;;;;;;;;;;;;;;22.37;25.19;96828.34;5110332;28;20377;-79
2024/02/07 02:57:16;;;;;;;;;;;;;;;22.92;24.68;96826.81;5108660;27;19922;-79
2024/02/07 02:59:43;;;;;;;;;;;;;;;21.47;28.52;96781.44;5107375;28;20436;-79
2024/02/07 03:02:09;;;;;;;;;;;;;;;21.30;26.50;96836.63;5085338;28;19916;-79
2024/02/07 03:04:41;;;;;;;;;;;;;;;21.65;26.92;96839.53;5101383;28;19965;-79
2024/02/07 03:09:52;;;;;;;;;;;;;;;23.79;23.64;96841.44;5105017;28;19926;-79
2024/02/07 03:12:18;;;;;;;;;;;;;;;23.95;24.19;96841.97;5106859;27;19923;-79
2024/02/07 03:14:44;;;;;;;;;;;;;;;24.37;23.04;96836.63;5105122;27;19920;-80
2024/02/07 03:17:12;;;;;;;;;;;;;;;21.86;25.81;96839.66;5105900;27;20023;-79
2024/02/07 03:19:38;;;;;;;;;;;;;;;22.08;25.77;96827.78;5098835;28;19951;-79
2024/02/07 03:22:04;;;;;;;;;;;;;;;22.48;25.53;96823.94;5109187;28;19960;-80
2024/02/07 03:24:31;;;;;;;;;;;;;;;23.54;23.59;96799.63;5108406;28;19967;-79
2024/02/07 03:26:57;;;;;;;;;;;;;;;24.24;25.92;96801.53;5115435;27;19922;-79
2024/02/07 03:29:25;;;;;;;;;;;;;;;24.49;22.84;96809.66;5108584;27;20006;-79
2024/02/07 03:31:53;;;;;;;;;;;;;;;24.37;22.78;96800.16;5088561;28;20342;-79
2024/02/07 03:34:20;;;;;;;;;;;;;;;24.19;23.04;96814.16;5111482;27;20440;-79
2024/02/07 03:36:46;;;;;;;;;;;;;;;25.22;21.65;96804.78;5103916;27;20011;-79
2024/02/07 03:39:13;;;;;;;;;;;;;;;24.99;22.77;96808.25;5086469;28;19915;-79
2024/02/07 03:41:42;;;;;;;;;;;;;;;24.43;23.31;96798.28;5103894;28;19943;-78
2024/02/07 03:44:12;;;;;;;;;;;;;;;25.10;23.68;96794.50;5090878;28;20003;-79
2024/02/07 03:46:40;;;;;;;;;;;;;;;24.65;22.28;96795.31;5080407;28;19943;-79
2024/02/07 03:49:07;;;;;;;;;;;;;;;24.93;22.13;96765.97;5088686;28;20334;-79
2024/02/07 03:51:35;;;;;;;;;;;;;;;24.73;22.43;96783.31;5077670;28;19920;-78
2024/02/07 03:54:04;;;;;;;;;;;;;;;25.48;21.65;96789.13;5091433;28;20369;-78
2024/02/07 03:56:30;;;;;;;;;;;;;;;25.34;22.09;96786.94;5093876;28;19947;-79
2024/02/07 03:58:59;;;;;;;;;;;;;;;24.65;22.00;96778.47;5079098;28;19973;-79
2024/02/07 04:01:26;;;;;;;;;;;;;;;24.80;22.63;96779.44;5078222;28;19928;-79
2024/02/07 04:03:52;;;;;;;;;;;;;;;25.02;23.20;96774.38;5082138;28;19931;-79
2024/02/07 04:06:18;;;;;;;;;;;;;;;25.55;21.27;96779.56;5075811;28;19921;-79
2024/02/07 04:08:44;;;;;;;;;;;;;;;24.99;21.67;96768.94;5091333;28;19923;-79
2024/02/07 05:16:33;;;;;;;;;;;;;;;26.65;20.24;96725.66;5103415;28;20446;-79
2024/02/07 05:19:01;;;;;;;;;;;;;;;26.50;20.47;96721.28;5097595;28;20377;-79
2024/02/07 05:21:27;;;;;;;;;;;;;;;26.24;20.77;96715.41;5102929;28;20273;-79
2024/02/07 05:23:54;;;;;;;;;;;;;;;24.95;21.85;96710.13;5100938;27;20307;-78
2024/02/07 05:26:20;;;;;;;;;;;;;;;26.04;21.01;96712.41;5105821;27;20365;-79
2024/02/07 05:28:46;;;;;;;;;;;;;;;25.61;21.68;96715.78;5102631;28;19920;-79
2024/02/07 05:31:12;;;;;;;;;;;;;;;25.88;21.37;96707.97;5099661;27;19955;-79
2024/02/07 05:33:41;;;;;;;;;;;;;;;26.44;20.49;96695.81;5099169;27;19963;-79
2024/02/07 05:36:08;;;;;;;;;;;;;;;25.89;21.31;96697.50;5106304;28;19927;-79
2024/02/07 05:38:34;;;;;;;;;;;;;;;26.21;20.94;96693.09;5102004;27;19920;-80
2024/02/07 05:41:01;;;;;;;;;;;;;;;25.91;21.16;96701.38;5097491;28;19924;-80
2024/02/07 05:43:27;;;;;;;;;;;;;;;26.32;20.56;96699.69;5094530;28;19942;-80
2024/02/07 05:45:55;;;;;;;;;;;;;;;25.48;22.33;96698.41;5105496;27;19927;-80
2024/02/07 05:48:21;;;;;;;;;;;;;;;25.98;20.69;96686.19;5103751;28;19924;-80
2024/02/07 05:50:47;;;;;;;;;;;;;;;25.90;21.06;96685.00;5104311;28;20334;-80
2024/02/07 05:53:13;;;;;;;;;;;;;;;26.21;20.70;96682.59;5111015;28;19919;-80
2024/02/07 05:55:42;;;;;;;;;;;;;;;26.07;20.62;96694.53;5105139;28;19939;-82
2024/02/07 05:58:09;;;;;;;;;;;;;;;25.39;21.46;96688.72;5102986;28;20352;-81
2024/02/07 06:00:35;;;;;;;;;;;;;;;25.87;21.26;96697.22;5101137;27;19953;-80
2024/02/07 06:03:05;;;;;;;;;;;;;;;26.35;20.60;96681.09;5112999;28;19920;-80
2024/02/07 06:05:32;;;;;;;;;;;;;;;26.27;20.69;96685.50;5096964;28;19924;-80
2024/02/07 06:07:58;;;;;;;;;;;;;;;26.51;20.54;96695.44;5095448;28;19920;-80
2024/02/07 06:10:24;;;;;;;;;;;;;;;25.66;21.30;96692.66;5098236;28;19927;-80
2024/02/07 06:12:50;;;;;;;;;;;;;;;25.55;21.50;96687.59;5108510;28;19924;-80
2024/02/07 06:15:17;;;;;;;;;;;;;;;25.11;21.95;96694.97;5105922;28;19920;-80
2024/02/07 06:17:43;;;;;;;;;;;;;;;25.37;21.40;96696.84;5110542;27;20410;-80
2024/02/07 06:20:09;;;;;;;;;;;;;;;25.19;24.10;96696.16;5096494;28;19923;-80
2024/02/07 06:22:36;;;;;;;;;;;;;;;24.94;21.90;96688.16;5100855;28;19929;-80
2024/02/07 06:25:03;;;;;;;;;;;;;;;25.50;21.37;96695.88;5106739;28;19924;-80
2024/02/07 06:27:29;;;;;;;;;;;;;;;25.38;24.11;96692.78;5106382;28;20411;-80
2024/02/07 06:29:55;;;;;;;;;;;;;;;25.32;21.59;96683.44;5111860;28;19927;-80
2024/02/07 06:32:21;;;;;;;;;;;;;;;25.97;20.89;96693.88;5103324;28;19928;-80
2024/02/07 06:34:47;;;;;;;;;;;;;;;26.49;20.43;96683.88;5111067;28;20388;-80
2024/02/07 06:37:13;;;;;;;;;;;;;;;25.99;21.03;96693.38;5102584;28;19934;-80
2024/02/07 06:39:39;;;;;;;;;;;;;;;26.27;20.80;96683.50;5103448;28;20019;-80
2024/02/07 06:42:06;;;;;;;;;;;;;;;26.05;20.85;96691.44;5107279;28;20011;-81
2024/02/07 06:44:32;;;;;;;;;;;;;;;26.02;20.87;96698.06;5102086;28;19920;-80
2024/02/07 06:46:58;;;;;;;;;;;;;;;26.39;20.94;96681.66;5095200;28;19927;-80
2024/02/07 06:49:24;;;;;;;;;;;;;;;25.20;23.49;96686.50;5111565;28;19916;-80
2024/02/07 06:51:50;;;;;;;;;;;;;;;26.28;20.94;96675.81;5104133;28;19920;-80
2024/02/07 06:54:16;;;;;;;;;;;;;;;26.66;20.44;96678.56;5104721;28;19927;-80
2024/02/07 06:56:42;;;;;;;;;;;;;;;26.55;20.56;96676.34;5100232;28;19924;-81
2024/02/07 06:59:11;;;;;;;;;;;;;;;25.62;21.84;96673.19;5084627;28;20339;-80
2024/02/07 07:01:38;;;;;;;;;;;;;;;25.91;22.22;96678.09;5092557;28;19920;-80
2024/02/07 07:04:04;;;;;;;;;;;;;;;26.05;20.94;96669.72;5108623;28;20285;-80
2024/02/07 07:06:30;;;;;;;;;;;;;;;26.87;20.10;96663.34;5101729;28;19916;-80
2024/02/07 07:08:56;;;;;;;;;;;;;;;26.35;22.08;96659.31;5100417;28;19920;-80
2024/02/07 07:11:22;;;;;;;;;;;;;;;26.03;20.94;96663.81;5094984;27;19923;-80
2024/02/07 07:13:48;;;;;;;;;;;;;;;26.35;20.70;96664.19;5116888;28;19961;-80
2024/02/07 07:16:14;;;;;;;;;;;;;;;25.92;21.19;96672.03;5116878;28;19926;-80
2024/02/07 07:18:40;;;;;;;;;;;;;;;26.83;20.35;96664.81;5092835;28;20265;-80
2024/02/07 07:21:06;;;;;;;;;;;;;;;26.32;20.76;96660.31;5106861;27;19942;-80
2024/02/07 07:23:32;;;;;;;;;;;;;;;26.20;20.90;96669.78;5111595;27;20368;-80
2024/02/07 07:25:58;;;;;;;;;;;;;;;25.72;21.02;96671.84;5109827;28;19928;-80
2024/02/07 07:28:24;;;;;;;;;;;;;;;26.45;20.77;96662.81;5116184;28;19915;-80
2024/02/07 07:30:52;;;;;;;;;;;;;;;26.29;20.86;96663.28;5104799;28;19919;-80
2024/02/07 07:33:18;;;;;;;;;;;;;;;26.94;20.35;96657.31;5107294;28;20369;-80
2024/02/07 07:35:44;;;;;;;;;;;;;;;26.44;20.85;96664.09;5087637;28;19920;-80
2024/02/07 07:38:10;;;;;;;;;;;;;;;26.65;20.16;96654.50;5106318;27;19927;-80
2024/02/07 07:40:38;;;;;;;;;;;;;;;25.45;21.45;96676.84;5097857;28;19927;-80
2024/02/07 07:43:04;;;;;;;;;;;;;;;26.13;20.87;96667.34;5096626;28;19927;-80
2024/02/07 07:45:30;;;;;;;;;;;;;;;26.32;20.68;96659.53;5110630;27;20057;-80
2024/02/07 07:47:56;;;;;;;;;;;;;;;26.51;20.69;96675.72;5116100;27;19942;-80
2024/02/07 07:50:22;;;;;;;;;;;;;;;25.48;21.57;96664.66;5107657;27;19959;-80
2024/02/07 07:52:48;;;;;;;;;;;;;;;26.46;20.64;96670.03;5099161;28;19973;-81
2024/02/07 07:55:15;;;;;;;;;;;;;;;25.29;23.78;96666.78;5108650;28;19923;-80
2024/02/07 07:57:41;;;;;;;;;;;;;;;25.46;21.48;96675.63;5105269;28;19930;-80
2024/02/07 08:00:07;;;;;;;;;;;;;;;25.70;21.37;96673.56;5105557;27;20412;-80
2024/02/07 08:02:33;;;;;;;;;;;;;;;25.03;22.11;96683.28;5104425;28;20385;-80
2024/02/07 08:04:59;;;;;;;;;;;;;;;25.72;21.23;96666.22;5101288;28;19935;-80
2024/02/07 08:07:25;;;;;;;;;;;;;;;26.07;20.95;96672.81;5114456;28;19924;-80
2024/02/07 08:09:53;;;;;;;;;;;;;;;25.70;24.76;96663.13;5114024;28;19928;-80
2024/02/07 08:12:19;;;;;;;;;;;;;;;25.32;21.96;96677.81;5102781;28;19919;-80
2024/02/07 08:14:46;;;;;;;;;;;;;;;26.25;21.09;96666.31;5101518;28;19923;-80
2024/02/07 08:17:17;;;;;;;;;;;;;;;25.88;21.37;96671.41;5103902;28;19927;-80
2024/02/07 08:19:47;;;;;;;;;;;;;;;26.35;21.17;96664.94;5105918;27;19920;-80
2024/02/07 08:22:13;;;;;;;;;;;;;;;26.09;21.03;96664.69;5105922;27;19957;-81
2024/02/07 08:24:39;;;;;;;;;;;;;;;26.09;21.16;96670.31;5102888;28;20494;-80
2024/02/07 08:27:05;;;;;;;;;;;;;;;26.62;20.68;96664.69;5092078;28;19928;-80
2024/02/07 08:29:31;;;;;;;;;;;;;;;25.00;23.36;96652.53;5104686;28;19924;-81
2024/02/07 08:31:57;;;;;;;;;;;;;;;25.16;22.25;96657.78;5102880;27;19927;-80
2024/02/07 08:34:23;;;;;;;;;;;;;;;25.70;21.62;96659.50;5105202;28;20018;-80
2024/02/07 08:36:50;;;;;;;;;;;;;;;25.05;22.67;96657.53;5105485;28;19920;-80
2024/02/07 08:39:16;;;;;;;;;;;;;;;25.74;21.75;96660.13;5111920;27;19927;-80
2024/02/07 08:41:42;;;;;;;;;;;;;;;26.03;21.49;96646.94;5106077;28;19920;-80
2024/02/07 08:44:09;;;;;;;;;;;;;;;25.87;21.83;96658.63;5104676;27;19920;-81
2024/02/07 08:46:35;;;;;;;;;;;;;;;25.57;22.13;96650.56;5096345;28;20010;-80
2024/02/07 08:49:01;;;;;;;;;;;;;;;25.74;22.04;96640.44;5095128;28;20416;-81
2024/02/07 08:51:27;;;;;;;;;;;;;;;25.83;22.00;96649.59;5103687;27;19928;-81
2024/02/07 08:53:53;;;;;;;;;;;;;;;26.26;21.27;96645.34;5101215;28;19920;-80
2024/02/07 08:56:19;;;;;;;;;;;;;;;26.91;20.87;96632.94;5094543;28;20285;-81
2024/02/07 08:58:47;;;;;;;;;;;;;;;26.46;21.24;96633.44;5108650;28;20408;-80
2024/02/07 09:01:13;;;;;;;;;;;;;;;26.10;21.88;96626.09;5099547;28;19981;-81
2024/02/07 09:03:40;;;;;;;;;;;;;;;25.99;21.93;96639.94;5104770;28;19926;-80
2024/02/07 09:06:09;;;;;;;;;;;;;;;26.20;22.49;96632.44;5095346;28;19923;-80
2024/02/07 09:08:36;;;;;;;;;;;;;;;26.39;22.19;96631.78;5094697;28;19916;-81
2024/02/07 09:11:02;;;;;;;;;;;;;;;26.05;22.12;96626.75;5094470;28;19916;-80
2024/02/07 09:13:28;;;;;;;;;;;;;;;26.31;22.33;96627.78;5095110;28;19924;-80
2024/02/07 09:15:54;;;;;;;;;;;;;;;26.40;22.33;96626.91;5097374;28;19927;-80
2024/02/07 09:18:20;;;;;;;;;;;;;;;26.33;22.87;96628.06;5114450;28;19916;-81
2024/02/07 09:20:46;;;;;;;;;;;;;;;25.66;23.43;96634.41;5110304;28;20018;-80
2024/02/07 09:23:12;;;;;;;;;;;;;;;26.04;23.27;96631.59;5098104;28;19931;-80
2024/02/07 09:25:38;;;;;;;;;;;;;;;25.88;23.29;96631.28;5103182;28;19947;-80
2024/02/07 09:28:04;;;;;;;;;;;;;;;26.01;23.04;96635.38;5094999;28;20380;-81
2024/02/07 09:30:30;;;;;;;;;;;;;;;27.13;22.01;96630.47;5106450;27;19920;-81
2024/02/07 09:32:56;;;;;;;;;;;;;;;26.79;22.55;96619.19;5101879;28;19920;-80
2024/02/07 09:35:22;;;;;;;;;;;;;;;26.54;22.73;96634.56;5102170;28;19980;-80
2024/02/07 09:37:49;;;;;;;;;;;;;;;26.60;22.85;96625.00;5095198;28;19995;-80
2024/02/07 09:40:15;;;;;;;;;;;;;;;25.95;23.56;96623.22;5108367;28;19917;-80
2024/02/07 09:42:43;;;;;;;;;;;;;;;25.57;24.60;96640.09;5093412;28;19924;-80
2024/02/07 09:45:11;;;;;;;;;;;;;;;26.04;24.34;96633.66;5095043;28;20002;-80
2024/02/07 09:47:44;;;;;;;;;;;;;;;25.69;25.07;96635.50;5075435;28;19916;-80
2024/02/07 09:50:12;;;;;;;;;;;;;;;26.46;24.20;96633.44;5105226;28;19927;-80
2024/02/07 09:52:39;;;;;;;;;;;;;;;26.27;24.57;96635.66;5114079;28;19919;-80
2024/02/07 09:55:07;;;;;;;;;;;;;;;26.14;25.00;96640.75;5087423;28;19970;-80
2024/02/07 09:57:33;;;;;;;;;;;;;;;25.47;25.54;96627.34;5093704;28;19970;-80
2024/02/07 09:59:59;;;;;;;;;;;;;;;25.94;24.65;96635.75;5093449;28;19916;-80
2024/02/07 10:02:26;;;;;;;;;;;;;;;25.57;27.17;96633.69;5093197;28;19916;-80
2024/02/07 10:04:52;;;;;;;;;;;;;;;24.99;26.38;96634.94;5093390;28;19923;-80
2024/02/07 10:07:19;;;;;;;;;;;;;;;25.25;26.02;96610.75;5093383;28;19955;-80
2024/02/07 10:09:47;;;;;;;;;;;;;;;25.39;25.87;96628.94;5096632;28;19977;-80
2024/02/07 10:12:14;;;;;;;;;;;;;;;25.26;26.06;96631.19;5093837;28;20274;-80
2024/02/07 10:14:42;;;;;;;;;;;;;;;24.93;26.00;96617.16;5093436;28;19912;-80
2024/02/07 10:17:08;;;;;;;;;;;;;;;26.00;25.09;96630.22;5093796;28;19920;-80
2024/02/07 10:19:34;;;;;;;;;;;;;;;25.42;25.64;96622.34;5093056;28;19916;-80
2024/02/07 10:22:00;;;;;;;;;;;;;;;25.50;25.97;96623.59;5074886;28;19917;-81
2024/02/07 10:24:30;;;;;;;;;;;;;;;24.90;26.23;96608.94;5101798;28;19920;-80
2024/02/07 10:26:56;;;;;;;;;;;;;;;25.13;26.32;96611.78;5112305;28;19926;-81
2024/02/07 10:29:25;;;;;;;;;;;;;;;25.48;25.84;96605.66;5103786;28;19963;-80
2024/02/07 10:31:51;;;;;;;;;;;;;;;26.12;25.32;96598.28;5102063;28;19959;-81
2024/02/07 10:34:18;;;;;;;;;;;;;;;25.87;25.70;96601.59;5106468;28;19985;-81
2024/02/07 10:36:44;;;;;;;;;;;;;;;25.30;26.11;96598.84;5113449;28;19916;-80
2024/02/07 10:39:12;;;;;;;;;;;;;;;25.80;25.32;96597.13;5113404;28;19943;-81
2024/02/07 10:41:38;;;;;;;;;;;;;;;25.88;25.19;96589.09;5113364;28;19916;-80
2024/02/07 10:44:08;;;;;;;;;;;;;;;25.85;25.01;96587.25;5115090;28;19920;-80
2024/02/07 10:46:34;;;;;;;;;;;;;;;25.78;25.46;96590.44;5104600;28;19920;-80
2024/02/07 10:49:01;;;;;;;;;;;;;;;25.48;25.26;96591.59;5097460;28;20296;-80
2024/02/07 10:51:30;;;;;;;;;;;;;;;24.55;26.56;96588.94;5109999;28;20452;-80
2024/02/07 10:54:03;;;;;;;;;;;;;;;25.97;25.58;96587.00;5118046;28;19982;-80
2024/02/07 10:56:34;;;;;;;;;;;;;;;24.92;25.91;96583.97;5117404;28;19926;-80
2024/02/07 10:59:01;;;;;;;;;;;;;;;25.77;25.14;96575.59;5107804;28;19920;-80
2024/02/07 11:01:28;;;;;;;;;;;;;;;24.39;26.43;96584.44;5096462;28;20357;-80
2024/02/07 11:03:55;;;;;;;;;;;;;;;24.73;26.48;96578.41;5097291;28;19916;-80
2024/02/07 11:06:22;;;;;;;;;;;;;;;25.03;25.75;96572.97;5097206;28;19920;-80
2024/02/07 11:08:48;;;;;;;;;;;;;;;25.42;25.64;96586.59;5102498;28;20327;-80
2024/02/07 11:11:14;;;;;;;;;;;;;;;25.94;24.82;96571.06;5100557;28;19920;-80
2024/02/07 11:13:41;;;;;;;;;;;;;;;25.45;25.07;96567.25;5102917;28;19998;-80
2024/02/07 11:16:07;;;;;;;;;;;;;;;25.63;25.13;96569.94;5116929;28;19915;-80
2024/02/07 11:18:33;;;;;;;;;;;;;;;25.34;25.22;96576.97;5116761;28;19947;-80
2024/02/07 11:21:00;;;;;;;;;;;;;;;26.51;24.38;96562.38;5114235;28;20377;-80
2024/02/07 11:23:31;;;;;;;;;;;;;;;26.54;24.54;96562.16;5082841;28;19920;-80
2024/02/07 11:25:58;;;;;;;;;;;;;;;26.71;24.50;96560.41;5096098;28;19916;-80
2024/02/07 11:28:24;;;;;;;;;;;;;;;25.97;27.34;96560.91;5096388;28;20400;-80
2024/02/07 11:30:52;;;;;;;;;;;;;;;25.94;25.33;96537.31;5097709;28;19916;-80
2024/02/07 11:33:18;;;;;;;;;;;;;;;26.20;25.00;96556.47;5096097;28;20406;-80
2024/02/07 11:35:44;;;;;;;;;;;;;;;26.03;24.69;96537.22;5102237;28;20300;-80
2024/02/07 11:38:11;;;;;;;;;;;;;;;26.21;24.35;96544.72;5115714;28;20377;-80
2024/02/07 11:40:38;;;;;;;;;;;;;;;26.30;24.37;96543.88;5115457;28;19919;-80
2024/02/07 11:43:04;;;;;;;;;;;;;;;26.51;24.37;96543.44;5115551;28;19926;-80
2024/02/07 11:45:35;;;;;;;;;;;;;;;27.21;23.75;96537.84;5116519;28;20011;-80
2024/02/07 11:48:01;;;;;;;;;;;;;;;26.03;24.99;96536.44;5096974;28;19969;-80
2024/02/07 11:50:35;;;;;;;;;;;;;;;26.38;24.23;96531.72;5095925;28;19919;-81
2024/02/07 11:53:01;;;;;;;;;;;;;;;25.87;25.07;96546.13;5095528;28;19923;-80
2024/02/07 11:55:27;;;;;;;;;;;;;;;25.38;25.33;96540.28;5096417;28;20003;-80
2024/02/07 11:57:54;;;;;;;;;;;;;;;25.36;25.01;96528.75;5096668;28;19955;-80
2024/02/07 12:00:22;;;;;;;;;;;;;;;24.78;25.95;96534.13;5111834;28;20333;-80
2024/02/07 12:02:49;;;;;;;;;;;;;;;25.69;25.09;96529.44;5104009;28;19922;-79
2024/02/07 12:05:19;;;;;;;;;;;;;;;25.25;25.05;96523.66;5116159;28;19916;-80
2024/02/07 12:07:49;;;;;;;;;;;;;;;24.83;26.16;96530.66;5112109;28;19915;-79
2024/02/07 12:10:15;;;;;;;;;;;;;;;25.10;25.62;96533.31;5114518;28;19920;-79
2024/02/07 12:12:42;;;;;;;;;;;;;;;25.17;25.28;96542.16;5104498;27;20401;-79
2024/02/07 12:15:09;;;;;;;;;;;;;;;24.69;26.19;96530.06;5108420;27;19939;-79
2024/02/07 12:17:35;;;;;;;;;;;;;;;25.71;24.82;96524.13;5112805;28;19916;-79
2024/02/07 12:20:02;;;;;;;;;;;;;;;26.07;24.34;96515.31;5078160;28;19995;-80
2024/02/07 12:22:31;;;;;;;;;;;;;;;26.07;23.98;96504.06;5097042;28;20008;-80
2024/02/07 12:25:00;;;;;;;;;;;;;;;25.64;24.45;96518.09;5115542;28;19920;-79
2024/02/07 12:27:26;;;;;;;;;;;;;;;25.60;24.90;96526.69;5112750;28;20328;-79
2024/02/07 12:29:54;;;;;;;;;;;;;;;25.89;24.51;96520.34;5098954;28;19916;-79
2024/02/07 12:32:20;;;;;;;;;;;;;;;26.71;23.41;96517.38;5111510;28;19916;-79
2024/02/07 12:34:47;;;;;;;;;;;;;;;26.44;23.70;96523.38;5095092;28;19923;-79
2024/02/07 12:37:16;;;;;;;;;;;;;;;26.42;23.51;96515.41;5104258;28;19920;-79
2024/02/07 12:39:46;;;;;;;;;;;;;;;26.80;23.20;96513.69;5113796;28;19920;-79
2024/02/07 12:42:16;;;;;;;;;;;;;;;26.16;23.66;96511.66;5114554;28;19970;-79
2024/02/07 12:44:43;;;;;;;;;;;;;;;26.81;22.87;96501.97;5095706;28;19975;-79
2024/02/07 12:47:09;;;;;;;;;;;;;;;25.56;24.96;96512.06;5095390;28;19946;-79
2024/02/07 12:49:35;;;;;;;;;;;;;;;26.92;22.63;96507.75;5110826;28;19920;-79
2024/02/07 12:52:02;;;;;;;;;;;;;;;27.04;22.59;96514.31;5110195;28;19920;-79
2024/02/07 12:54:29;;;;;;;;;;;;;;;26.07;23.37;96515.31;5096492;28;19927;-79
2024/02/07 12:56:55;;;;;;;;;;;;;;;25.94;23.99;96528.88;5094831;28;19962;-79
2024/02/07 12:59:32;;;;;;;;;;;;;;;26.46;23.27;96515.22;5094648;28;19923;-79
2024/02/07 13:02:02;;;;;;;;;;;;;;;26.95;22.60;96512.41;5094735;28;19924;-79
2024/02/07 13:04:31;;;;;;;;;;;;;;;26.15;23.28;96520.56;5094327;28;19928;-79
2024/02/07 13:07:01;;;;;;;;;;;;;;;25.92;23.98;96516.56;5095399;28;19967;-79
2024/02/07 13:09:28;;;;;;;;;;;;;;;26.20;23.61;96526.31;5103431;28;19970;-79
2024/02/07 13:11:54;;;;;;;;;;;;;;;26.84;22.97;96525.56;5094168;28;19923;-79
2024/02/07 13:14:20;;;;;;;;;;;;;;;27.29;22.11;96530.50;5112514;28;20014;-80
2024/02/07 13:16:46;;;;;;;;;;;;;;;26.97;22.35;96528.81;5114759;28;19937;-79
2024/02/07 13:19:13;;;;;;;;;;;;;;;27.75;21.76;96527.78;5112499;28;19926;-79
2024/02/07 13:21:42;;;;;;;;;;;;;;;27.96;21.50;96530.03;5112886;28;20384;-79
2024/02/07 13:24:17;;;;;;;;;;;;;;;27.92;21.49;96532.31;5109567;28;19939;-79
2024/02/07 13:26:44;;;;;;;;;;;;;;;27.73;21.58;96525.44;5107015;27;19924;-79
2024/02/07 13:29:10;;;;;;;;;;;;;;;27.68;21.86;96517.69;5112668;28;19916;-79
2024/02/07 13:31:37;;;;;;;;;;;;;;;27.60;22.06;96527.88;5111929;28;19922;-79
2024/02/07 13:34:04;;;;;;;;;;;;;;;27.89;21.66;96524.09;5101162;28;19961;-80
2024/02/07 13:36:31;;;;;;;;;;;;;;;27.55;21.89;96514.47;5093614;28;19947;-79
2024/02/07 13:38:57;;;;;;;;;;;;;;;27.04;22.38;96528.38;5094291;28;19918;-79
2024/02/07 13:41:23;;;;;;;;;;;;;;;27.00;22.53;96516.56;5094088;28;19962;-80
2024/02/07 13:43:49;;;;;;;;;;;;;;;26.98;22.33;96524.72;5103610;28;19919;-79
2024/02/07 13:46:15;;;;;;;;;;;;;;;27.10;22.34;96518.75;5095502;28;19920;-79
2024/02/07 13:48:41;;;;;;;;;;;;;;;27.69;21.68;96516.44;5093592;28;20385;-79
2024/02/07 13:51:08;;;;;;;;;;;;;;;28.10;21.38;96519.19;5075015;28;19923;-79
2024/02/07 13:53:35;;;;;;;;;;;;;;;27.17;22.02;96531.63;5105573;28;19920;-79